Time;durP1;ratioP1;P1;durP2;ratioP2;P2;SDS_P1;SDS_P2;PMS_P1;PMS_P2;Temp;Humidity;BMP_temperature;BMP_pressure;BME280_temperature;BME280_humidity;BME280_pressure;Samples;Min_cycle;Max_cycle;Signal;HPM_P1;HPM_P2
2023/03/27 00:01:31;;;;;;;0.03;0.00;;;1.00;99.90;;;;;;20449194;28;20044;-48
2023/03/27 00:11:33;;;;;;;0.10;0.00;;;0.60;99.90;;;;;;20420551;29;20094;-50
2023/03/27 00:21:34;;;;;;;0.00;0.00;;;0.40;99.90;;;;;;20424892;29;20039;-48
2023/03/27 00:31:36;;;;;;;0.03;0.00;;;0.40;99.90;;;;;;20447010;29;20031;-51
2023/03/27 00:41:37;;;;;;;0.00;0.00;;;0.70;99.90;;;;;;20418973;29;20485;-52
2023/03/27 00:51:41;;;;;;;0.05;0.00;;;0.70;99.90;;;;;;20430012;29;20047;-48
2023/03/27 01:01:44;;;;;;;0.47;0.00;;;0.60;99.90;;;;;;20435345;29;20068;-49
2023/03/27 01:12:19;;;;;;;0.20;0.00;;;0.70;99.90;;;;;;20459340;29;20039;-44
2023/03/27 01:22:40;;;;;;;0.00;0.00;;;0.60;99.90;;;;;;20410353;29;20560;-49
2023/03/27 01:33:03;;;;;;;0.30;0.17;;;0.40;99.90;;;;;;20407197;29;20036;-52
2023/03/27 01:43:16;;;;;;;2.83;0.40;;;0.50;99.90;;;;;;20431448;29;20030;-51
2023/03/27 01:53:33;;;;;;;1.27;0.30;;;0.80;99.90;;;;;;20482003;29;20057;-48
2023/03/27 02:03:40;;;;;;;0.70;0.30;;;0.70;99.90;;;;;;20439813;28;20047;-52
2023/03/27 02:13:54;;;;;;;0.77;0.30;;;0.90;99.90;;;;;;20429240;29;20027;-49
2023/03/27 02:24:00;;;;;;;0.50;0.20;;;0.80;99.90;;;;;;20422127;29;20036;-50
2023/03/27 02:34:17;;;;;;;1.88;0.10;;;0.70;99.90;;;;;;20410905;29;20094;-49
2023/03/27 02:44:50;;;;;;;0.20;0.10;;;0.60;99.90;;;;;;20410252;29;20046;-51
2023/03/27 02:55:04;;;;;;;0.17;0.05;;;0.80;99.90;;;;;;20450363;29;20260;-46
2023/03/27 03:05:13;;;;;;;0.95;0.10;;;1.00;99.90;;;;;;20424154;29;20106;-49
2023/03/27 03:15:15;;;;;;;0.10;0.00;;;0.90;99.90;;;;;;20424167;29;20039;-46
2023/03/27 03:25:18;;;;;;;0.20;0.00;;;0.90;99.90;;;;;;20440179;29;20086;-50
2023/03/27 03:35:22;;;;;;;0.40;0.05;;;1.00;99.90;;;;;;20424611;29;20042;-52
2023/03/27 03:45:24;;;;;;;0.32;0.00;;;1.30;99.90;;;;;;20422224;29;20032;-51
2023/03/27 03:55:25;;;;;;;0.15;0.00;;;1.50;99.90;;;;;;20421633;29;20039;-54
2023/03/27 04:05:27;;;;;;;0.00;0.00;;;1.40;99.90;;;;;;20428314;29;20468;-53
2023/03/27 04:15:32;;;;;;;0.10;0.05;;;1.20;99.90;;;;;;20438316;29;20039;-50
2023/03/27 04:25:34;;;;;;;0.50;0.00;;;1.20;99.90;;;;;;20413487;29;20032;-48
2023/03/27 04:35:36;;;;;;;0.38;0.03;;;1.30;99.90;;;;;;20402860;29;20388;-47
2023/03/27 04:45:52;;;;;;;0.10;0.00;;;1.30;99.90;;;;;;20411105;29;20050;-50
2023/03/27 04:55:56;;;;;;;0.32;0.00;;;1.20;99.90;;;;;;20467973;29;20031;-46
2023/03/27 05:05:58;;;;;;;0.00;0.00;;;1.60;99.90;;;;;;20401205;29;20040;-49
2023/03/27 05:16:00;;;;;;;0.00;0.00;;;1.20;99.90;;;;;;20454393;29;20039;-51
2023/03/27 05:26:07;;;;;;;0.00;0.00;;;0.50;99.90;;;;;;20430760;29;20091;-48
2023/03/27 05:36:23;;;;;;;0.00;0.00;;;0.50;99.90;;;;;;20404088;29;20408;-50
2023/03/27 05:46:24;;;;;;;0.00;0.00;;;0.50;99.90;;;;;;20454761;29;20039;-52
2023/03/27 05:56:37;;;;;;;1.42;0.00;;;0.50;99.90;;;;;;20495010;29;20791;-49
2023/03/27 06:06:40;;;;;;;0.00;0.00;;;0.50;99.90;;;;;;20412880;29;20047;-49
2023/03/27 06:16:42;;;;;;;0.10;0.00;;;0.70;99.90;;;;;;20412298;29;20455;-51
2023/03/27 06:27:13;;;;;;;0.32;0.00;;;0.70;99.90;;;;;;20411007;29;20472;-47
2023/03/27 06:37:17;;;;;;;0.00;0.00;;;0.80;99.90;;;;;;20407415;29;20043;-48
2023/03/27 06:47:18;;;;;;;0.00;0.00;;;0.70;99.90;;;;;;20456551;28;20038;-49
2023/03/27 06:57:26;;;;;;;0.20;0.00;;;1.00;99.90;;;;;;20482414;29;20032;-50
2023/03/27 07:07:31;;;;;;;0.10;0.00;;;1.40;99.90;;;;;;20408991;29;20040;-49
2023/03/27 07:17:33;;;;;;;0.28;0.10;;;2.30;99.90;;;;;;20423232;29;20035;-48
2023/03/27 07:27:36;;;;;;;0.10;0.00;;;3.40;99.90;;;;;;20401031;29;20142;-54
2023/03/27 07:37:39;;;;;;;0.00;0.00;;;4.50;99.90;;;;;;20453841;29;20440;-53
2023/03/27 07:48:13;;;;;;;0.83;0.10;;;5.80;99.90;;;;;;20438641;29;20058;-50
2023/03/27 07:58:16;;;;;;;0.15;0.00;;;7.30;99.90;;;;;;20404512;29;20103;-53
2023/03/27 08:08:18;;;;;;;0.00;0.00;;;8.30;99.90;;;;;;20432775;29;20106;-51
2023/03/27 08:18:41;;;;;;;0.00;0.00;;;8.10;79.20;;;;;;20425540;29;20040;-52
2023/03/27 08:28:43;;;;;;;0.60;0.00;;;8.10;73.80;;;;;;20395468;29;20039;-51
2023/03/27 08:38:45;;;;;;;0.00;0.00;;;8.60;77.30;;;;;;20395324;29;20103;-50
2023/03/27 08:48:59;;;;;;;0.10;0.00;;;8.60;75.40;;;;;;20427764;29;20090;-47
2023/03/27 08:59:04;;;;;;;0.10;0.10;;;9.20;82.30;;;;;;20465721;29;20560;-45
2023/03/27 09:09:45;;;;;;;0.30;0.10;;;9.60;91.60;;;;;;20422518;29;20056;-53
2023/03/27 09:20:05;;;;;;;0.15;0.10;;;10.00;92.30;;;;;;20420400;29;20087;-52
2023/03/27 09:30:28;;;;;;;0.10;0.10;;;10.40;91.20;;;;;;20432494;29;20035;-48
2023/03/27 09:40:48;;;;;;;0.20;0.00;;;10.60;91.70;;;;;;20415960;29;20408;-52
2023/03/27 09:50:50;;;;;;;0.10;0.00;;;10.50;81.90;;;;;;20423239;29;20046;-49
2023/03/27 10:01:29;;;;;;;0.25;0.08;;;10.00;83.60;;;;;;20455616;29;20111;-52
2023/03/27 10:11:38;;;;;;;0.45;0.00;;;10.40;80.00;;;;;;20412608;29;20056;-52
2023/03/27 10:21:44;;;;;;;2.45;0.10;;;9.40;87.00;;;;;;20417433;29;20389;-53
2023/03/27 10:31:57;;;;;;;0.10;0.00;;;9.80;78.80;;;;;;20445560;29;20028;-52
2023/03/27 10:42:13;;;;;;;0.15;0.10;;;9.60;73.10;;;;;;20426517;29;20036;-52
2023/03/27 10:52:35;;;;;;;0.00;0.00;;;9.40;76.50;;;;;;20426135;29;20035;-50
2023/03/27 11:02:57;;;;;;;0.00;0.00;;;9.90;74.50;;;;;;20424491;28;20043;-50
2023/03/27 11:13:08;;;;;;;0.10;0.00;;;10.10;68.60;;;;;;20451224;29;20437;-47
2023/03/27 11:23:17;;;;;;;0.40;0.00;;;10.10;64.10;;;;;;20403285;29;20035;-49
2023/03/27 11:33:51;;;;;;;0.00;0.00;;;10.00;67.30;;;;;;20423070;29;20039;-51
2023/03/27 11:43:52;;;;;;;0.00;0.00;;;10.20;62.20;;;;;;20422919;29;20063;-49
2023/03/27 11:54:42;;;;;;;0.00;0.00;;;10.40;69.10;;;;;;20497230;29;20560;-48
2023/03/27 12:05:35;;;;;;;0.00;0.00;;;10.40;61.30;;;;;;20421668;29;20099;-52
2023/03/27 12:15:56;;;;;;;0.00;0.00;;;10.40;59.50;;;;;;20403609;29;20036;-48
2023/03/27 12:26:15;;;;;;;0.03;0.00;;;10.70;65.10;;;;;;20414155;29;20473;-49
2023/03/27 12:36:44;;;;;;;0.00;0.00;;;10.70;57.50;;;;;;20419111;29;20056;-53
2023/03/27 12:47:20;;;;;;;0.00;0.00;;;10.90;58.50;;;;;;20416145;29;20094;-51
2023/03/27 12:57:25;;;;;;;0.15;0.00;;;11.00;63.20;;;;;;20444441;29;20725;-49
2023/03/27 13:07:49;;;;;;;0.00;0.00;;;10.90;53.50;;;;;;20401419;29;20125;-47
2023/03/27 13:18:04;;;;;;;0.00;0.00;;;10.80;54.10;;;;;;20400809;29;20040;-49
2023/03/27 13:28:13;;;;;;;0.00;0.00;;;10.00;59.10;;;;;;20418878;29;20565;-49
2023/03/27 13:38:47;;;;;;;0.00;0.00;;;10.30;55.10;;;;;;20401340;29;20098;-51
2023/03/27 13:49:06;;;;;;;0.00;0.00;;;10.50;53.90;;;;;;20406353;29;20048;-49
2023/03/27 13:59:56;;;;;;;0.00;0.00;;;10.30;52.90;;;;;;20425206;29;20094;-49
2023/03/27 14:10:16;;;;;;;0.00;0.00;;;10.30;55.20;;;;;;20472472;29;20453;-50
2023/03/27 14:20:35;;;;;;;0.00;0.00;;;10.30;55.00;;;;;;20407675;29;20048;-50
2023/03/27 14:30:45;;;;;;;0.10;0.00;;;9.80;54.20;;;;;;20411272;29;20111;-50
2023/03/27 14:41:04;;;;;;;0.00;0.00;;;9.80;53.90;;;;;;20426576;29;20031;-50
2023/03/27 14:51:25;;;;;;;0.00;0.00;;;9.60;56.50;;;;;;20462678;29;20102;-49
2023/03/27 15:01:30;;;;;;;0.00;0.00;;;9.10;55.50;;;;;;20432903;29;20520;-56
2023/03/27 15:11:38;;;;;;;0.25;0.00;;;9.00;55.40;;;;;;20455322;28;20039;-56
2023/03/27 15:21:59;;;;;;;0.65;0.00;;;8.60;57.70;;;;;;20422127;29;20555;-53
2023/03/27 15:32:07;;;;;;;0.00;0.00;;;7.70;58.80;;;;;;20445213;29;20036;-53
2023/03/27 15:42:12;;;;;;;0.30;0.00;;;7.40;58.50;;;;;;20456075;29;20042;-55
2023/03/27 15:52:31;;;;;;;0.98;0.00;;;7.10;59.20;;;;;;20442753;29;20086;-54
2023/03/27 16:02:34;;;;;;;0.10;0.00;;;6.90;59.40;;;;;;20441768;29;20106;-49
2023/03/27 16:12:38;;;;;;;2.13;0.00;;;6.40;60.60;;;;;;20403972;29;20048;-56
2023/03/27 16:22:40;;;;;;;0.00;0.00;;;5.70;61.20;;;;;;20433203;29;20551;-56
2023/03/27 16:32:41;;;;;;;1.48;0.00;;;5.40;58.20;;;;;;20427052;29;20040;-54
2023/03/27 16:42:43;;;;;;;0.20;0.00;;;5.10;56.10;;;;;;20442660;29;20358;-54
2023/03/27 16:52:44;;;;;;;0.30;0.00;;;5.00;55.40;;;;;;20443809;29;20118;-50
2023/03/27 17:02:46;;;;;;;0.20;0.00;;;4.80;55.20;;;;;;20437137;29;20052;-55
2023/03/27 17:12:48;;;;;;;0.43;0.10;;;4.60;56.60;;;;;;20418340;29;20098;-55
2023/03/27 17:22:50;;;;;;;0.10;0.00;;;4.40;55.50;;;;;;20433004;29;20027;-54
2023/03/27 17:32:52;;;;;;;0.15;0.00;;;4.10;56.00;;;;;;20443271;29;20031;-53
2023/03/27 17:42:53;;;;;;;4.93;0.20;;;3.90;56.00;;;;;;20432084;29;20036;-47
2023/03/27 17:52:56;;;;;;;0.40;0.10;;;3.60;56.80;;;;;;20431649;29;20512;-54
2023/03/27 18:02:57;;;;;;;0.52;0.20;;;3.40;57.10;;;;;;20430412;29;20075;-55
2023/03/27 18:13:00;;;;;;;0.30;0.10;;;3.10;58.40;;;;;;20455426;29;20106;-54
2023/03/27 18:23:02;;;;;;;0.43;0.10;;;2.80;58.00;;;;;;20423717;29;20528;-49
2023/03/27 18:33:04;;;;;;;0.38;0.20;;;2.70;59.80;;;;;;20428460;29;20548;-52
2023/03/27 18:43:07;;;;;;;0.10;0.05;;;2.30;58.60;;;;;;20410348;29;20043;-46
2023/03/27 18:53:08;;;;;;;4.43;0.10;;;2.20;60.00;;;;;;20494200;29;20339;-51
2023/03/27 19:03:16;;;;;;;0.85;0.25;;;1.80;60.80;;;;;;20441455;28;20076;-53
2023/03/27 19:13:18;;;;;;;1.90;0.20;;;1.80;59.80;;;;;;20425614;29;20096;-52
2023/03/27 19:23:39;;;;;;;1.73;0.20;;;1.60;60.50;;;;;;20410789;29;20446;-53
2023/03/27 19:33:41;;;;;;;1.92;0.20;;;1.20;60.00;;;;;;20423695;29;20404;-54
2023/03/27 19:43:43;;;;;;;1.77;0.13;;;1.10;58.90;;;;;;20421877;29;20501;-51
2023/03/27 19:53:45;;;;;;;0.95;0.30;;;1.00;58.10;;;;;;20454666;28;20039;-53
2023/03/27 20:03:47;;;;;;;1.38;0.50;;;0.90;60.30;;;;;;20424101;29;20047;-52
2023/03/27 20:13:49;;;;;;;0.68;0.13;;;0.70;59.60;;;;;;20421010;29;20311;-52
2023/03/27 20:23:54;;;;;;;0.45;0.10;;;0.60;61.10;;;;;;20443603;29;20106;-54
2023/03/27 20:34:05;;;;;;;2.33;0.10;;;0.40;60.90;;;;;;20421789;29;20040;-54
2023/03/27 20:44:15;;;;;;;0.80;0.20;;;0.30;62.40;;;;;;20420034;29;20040;-54
2023/03/27 20:54:17;;;;;;;0.65;0.20;;;0.20;63.60;;;;;;20420538;29;20035;-52
2023/03/27 21:04:20;;;;;;;0.40;0.10;;;-0.10;64.50;;;;;;20418652;29;20054;-53
2023/03/27 21:14:22;;;;;;;0.20;0.10;;;-0.20;64.10;;;;;;20476881;29;20453;-50
2023/03/27 21:24:24;;;;;;;1.13;0.20;;;-0.30;65.10;;;;;;20428123;29;20047;-54
2023/03/27 21:34:26;;;;;;;0.20;0.15;;;-0.50;65.10;;;;;;20460933;29;20082;-55
2023/03/27 21:44:28;;;;;;;0.80;0.20;;;-0.80;66.80;;;;;;20476635;29;20560;-53
2023/03/27 21:54:29;;;;;;;0.45;0.20;;;-1.10;69.20;;;;;;20510185;29;20070;-50
2023/03/27 22:04:31;;;;;;;1.15;0.10;;;-1.40;70.50;;;;;;20435801;29;20088;-49
2023/03/27 22:14:33;;;;;;;0.30;0.10;;;-1.50;67.00;;;;;;20429735;29;20067;-50
2023/03/27 22:24:35;;;;;;;0.22;0.13;;;-1.20;64.70;;;;;;20423924;29;20061;-48
2023/03/27 22:34:36;;;;;;;0.20;0.10;;;-1.10;66.30;;;;;;20428437;29;20044;-49
2023/03/27 22:44:38;;;;;;;0.60;0.10;;;-1.00;64.30;;;;;;20427732;29;20067;-52
2023/03/27 22:54:40;;;;;;;0.52;0.20;;;-1.20;64.10;;;;;;20466631;29;20031;-51
2023/03/27 23:04:41;;;;;;;0.55;0.10;;;-1.30;63.60;;;;;;20429052;29;20040;-51
2023/03/27 23:14:43;;;;;;;0.57;0.20;;;-1.20;62.40;;;;;;20425831;29;20044;-49
2023/03/27 23:24:45;;;;;;;0.22;0.10;;;-1.00;62.60;;;;;;20454975;29;20031;-50
2023/03/27 23:34:47;;;;;;;0.80;0.20;;;-1.30;62.40;;;;;;20426252;29;20031;-48
2023/03/27 23:44:49;;;;;;;0.60;0.20;;;-1.10;61.90;;;;;;20423407;29;20036;-49
2023/03/27 23:54:50;;;;;;;0.38;0.10;;;-1.20;62.10;;;;;;20422834;29;20074;-50
